createdAt,value
2019-06-01T05:36:27.286Z,20.31
2019-06-01T05:38:58.615Z,20.53
2019-06-01T05:41:29.639Z,20.64
2019-06-01T05:44:00.676Z,20.58
2019-06-01T05:46:31.707Z,20.59
2019-06-01T05:49:02.733Z,20.67
2019-06-01T05:51:33.768Z,20.77
2019-06-01T05:54:05.096Z,20.78
2019-06-01T05:56:36.215Z,20.87
2019-06-01T05:59:07.375Z,20.90
2019-06-01T06:01:42.022Z,21.06
2019-06-01T06:04:13.457Z,21.25
2019-06-01T06:06:44.564Z,21.30
2019-06-01T06:09:17.108Z,21.56
2019-06-01T06:11:48.438Z,21.81
2019-06-01T06:14:21.077Z,21.78
2019-06-01T06:16:52.694Z,21.84
2019-06-01T06:19:23.889Z,22.00
2019-06-01T06:21:55.032Z,22.13
2019-06-01T06:24:26.196Z,22.31
2019-06-01T06:26:57.362Z,22.54
2019-06-01T06:29:28.496Z,22.72
2019-06-01T06:31:59.618Z,22.98
2019-06-01T06:34:30.839Z,23.31
2019-06-01T06:37:01.911Z,23.46
2019-06-01T06:39:33.064Z,23.60
2019-06-01T06:42:04.264Z,23.74
2019-06-01T06:44:35.543Z,23.11
2019-06-01T06:47:06.649Z,23.45
2019-06-01T06:49:37.774Z,23.39
2019-06-01T06:52:09.108Z,23.38
2019-06-01T06:54:40.317Z,23.28
2019-06-01T06:57:11.398Z,23.24
2019-06-01T06:59:42.525Z,23.52
2019-06-01T07:02:13.642Z,23.81
2019-06-01T07:04:44.842Z,24.03
2019-06-01T07:07:16.038Z,24.09
2019-06-01T07:09:47.195Z,24.13
2019-06-01T07:12:19.216Z,23.94
2019-06-01T07:14:50.431Z,23.99
2019-06-01T07:17:21.577Z,24.15
2019-06-01T07:19:52.734Z,24.53
2019-06-01T07:22:23.962Z,24.77
2019-06-01T07:24:55.137Z,24.87
2019-06-01T07:27:26.306Z,24.81
2019-06-01T07:29:58.474Z,24.87
2019-06-01T07:32:29.644Z,25.08
2019-06-01T07:35:01.776Z,25.10
2019-06-01T07:37:33.132Z,25.73
2019-06-01T07:40:07.418Z,25.55
2019-06-01T07:42:38.645Z,25.10
2019-06-01T07:45:09.866Z,25.27
2019-06-01T07:47:41.088Z,25.80
2019-06-01T07:50:12.397Z,25.48
2019-06-01T07:52:43.634Z,26.17
2019-06-01T07:55:14.996Z,26.21
2019-06-01T07:57:46.081Z,25.36
2019-06-01T08:00:18.421Z,25.73
2019-06-01T08:02:49.654Z,26.19
2019-06-01T08:05:23.270Z,25.82
2019-06-01T08:07:53.640Z,26.12
2019-06-01T08:10:26.025Z,26.47
2019-06-01T08:12:58.730Z,26.17
2019-06-01T08:15:29.907Z,26.20
2019-06-01T08:18:01.088Z,26.03
2019-06-01T08:20:32.362Z,25.86
2019-06-01T08:23:03.431Z,25.95
2019-06-01T08:25:34.976Z,26.80
2019-06-01T08:28:06.114Z,27.09
2019-06-01T08:30:37.226Z,27.23
2019-06-01T08:33:08.375Z,27.50
2019-06-01T08:35:39.491Z,27.04
2019-06-01T08:38:10.576Z,26.85
2019-06-01T08:40:41.695Z,27.19
2019-06-01T08:43:13.034Z,27.64
2019-06-01T08:45:44.219Z,27.13
2019-06-01T08:48:15.473Z,27.08
2019-06-01T08:50:46.609Z,28.11
2019-06-01T08:53:17.721Z,28.11
2019-06-01T08:55:48.863Z,28.52
2019-06-01T08:58:20.018Z,28.15
2019-06-01T09:00:51.210Z,28.51
2019-06-01T09:03:22.555Z,28.88
2019-06-01T09:05:53.669Z,28.20
2019-06-01T09:08:26.015Z,27.71
2019-06-01T09:10:57.611Z,27.48
2019-06-01T09:13:29.141Z,28.24
2019-06-01T09:16:00.360Z,28.58
2019-06-01T09:18:31.605Z,27.83
2019-06-01T09:21:02.763Z,28.24
2019-06-01T09:23:33.872Z,28.73
2019-06-01T09:26:05.509Z,28.37
2019-06-01T09:28:37.644Z,28.64
2019-06-01T09:31:08.886Z,30.01
2019-06-01T09:33:40.059Z,29.17
2019-06-01T09:36:11.311Z,29.38
2019-06-01T09:38:42.555Z,30.43
2019-06-01T09:41:13.750Z,30.68
2019-06-01T09:43:45.045Z,31.54
2019-06-01T09:46:16.129Z,31.50
2019-06-01T09:48:47.518Z,30.75
2019-06-01T09:51:18.625Z,30.03
2019-06-01T09:53:49.764Z,30.03
2019-06-01T09:56:20.888Z,28.70
2019-06-01T09:58:51.952Z,28.68
